Time;durP1;ratioP1;P1;durP2;ratioP2;P2;SDS_P1;SDS_P2;PMS_P1;PMS_P2;Temp;Humidity;BMP_temperature;BMP_pressure;BME280_temperature;BME280_humidity;BME280_pressure;Samples;Min_cycle;Max_cycle;Signal;HPM_P1;HPM_P2
2022/12/30 00:01:43;;;;;;;11.10;3.78;;;9.30;79.50;;;;;;2331295;57;27914;-48
2022/12/30 00:04:10;;;;;;;12.25;4.25;;;9.20;81.40;;;;;;2317538;58;21052;-49
2022/12/30 00:06:38;;;;;;;10.93;3.65;;;9.30;80.80;;;;;;2317230;58;21048;-48
2022/12/30 00:09:05;;;;;;;14.82;3.72;;;9.40;80.10;;;;;;2318141;58;21049;-49
2022/12/30 00:11:34;;;;;;;12.93;3.90;;;9.40;79.60;;;;;;2316796;58;21028;-51
2022/12/30 00:33:51;;;;;;;16.42;4.25;;;9.50;79.40;;;;;;2318410;58;21088;-48
2022/12/30 00:36:21;;;;;;;14.98;4.18;;;9.50;79.10;;;;;;2318442;58;21544;-48
2022/12/30 00:38:48;;;;;;;6.18;3.37;;;9.40;79.20;;;;;;2318162;58;21540;-50
2022/12/30 00:44:00;;;;;;;10.30;4.07;;;9.50;79.20;;;;;;2318503;58;21092;-50
2022/12/30 00:46:28;;;;;;;7.57;3.37;;;9.40;79.10;;;;;;2317215;58;21532;-50
2022/12/30 00:57:13;;;;;;;16.90;3.65;;;9.50;79.00;;;;;;2306604;58;21070;-48
2022/12/30 00:59:40;;;;;;;13.48;3.70;;;9.50;79.00;;;;;;2306915;58;21195;-49
2022/12/30 01:02:07;;;;;;;8.80;3.33;;;9.50;79.00;;;;;;2307215;58;21135;-49
2022/12/30 01:04:35;;;;;;;14.15;4.43;;;9.50;79.80;;;;;;2306618;58;21142;-47
2022/12/30 01:07:02;;;;;;;13.80;3.70;;;9.60;79.00;;;;;;2307338;58;21375;-48
2022/12/30 01:09:29;;;;;;;10.15;3.78;;;9.60;79.00;;;;;;2307113;58;21057;-47
2022/12/30 01:12:08;;;;;;;16.17;5.80;;;9.60;78.70;;;;;;2307298;58;21058;-48
2022/12/30 01:14:36;;;;;;;11.15;3.58;;;9.60;78.30;;;;;;2305992;58;21529;-49
2022/12/30 01:17:04;;;;;;;11.25;3.95;;;9.50;78.10;;;;;;2307367;58;22515;-53
2022/12/30 01:19:31;;;;;;;12.18;3.55;;;9.60;78.30;;;;;;2306630;58;21134;-51
2022/12/30 01:21:59;;;;;;;13.90;3.95;;;9.60;78.20;;;;;;2306664;58;21777;-47
2022/12/30 01:24:26;;;;;;;12.57;4.40;;;9.50;77.70;;;;;;2306264;58;21200;-47
2022/12/30 01:26:53;;;;;;;11.38;4.00;;;9.50;77.50;;;;;;2306025;58;21077;-45
2022/12/30 01:29:25;;;;;;;9.80;3.78;;;9.50;77.40;;;;;;2306478;58;21556;-50
2022/12/30 01:31:55;;;;;;;10.63;4.07;;;9.40;77.40;;;;;;2306547;58;21618;-44
2022/12/30 01:34:22;;;;;;;11.27;4.12;;;9.40;77.30;;;;;;2305855;58;21549;-47
2022/12/30 01:36:49;;;;;;;17.75;4.05;;;9.50;77.10;;;;;;2306191;58;21085;-44
2022/12/30 01:39:17;;;;;;;17.60;4.97;;;9.50;77.20;;;;;;2306615;58;21079;-45
2022/12/30 01:41:44;;;;;;;16.15;5.03;;;9.40;77.10;;;;;;2308424;58;21050;-46
2022/12/30 01:44:45;;;;;;;19.90;6.20;;;9.40;77.10;;;;;;2309853;58;21026;-47
2022/12/30 01:47:15;;;;;;;13.65;4.95;;;9.40;77.50;;;;;;2308642;58;21080;-48
2022/12/30 01:49:46;;;;;;;18.65;4.68;;;9.40;77.60;;;;;;2308722;58;21521;-46
2022/12/30 01:54:54;;;;;;;14.13;4.25;;;9.40;77.80;;;;;;2351777;57;22050;-48
2022/12/30 01:57:22;;;;;;;11.45;3.90;;;9.40;77.90;;;;;;2589184;53;21179;-50
2022/12/30 01:59:50;;;;;;;13.23;4.25;;;9.40;77.90;;;;;;2342000;57;21573;-50
2022/12/30 02:02:17;;;;;;;10.27;4.00;;;9.40;77.80;;;;;;2341755;56;21045;-46
2022/12/30 02:04:44;;;;;;;10.88;3.70;;;9.40;77.70;;;;;;2369901;56;21542;-46
2022/12/30 02:07:18;;;;;;;14.00;3.72;;;9.40;78.30;;;;;;2370208;56;21860;-49
2022/12/30 02:09:46;;;;;;;12.75;3.75;;;9.40;77.50;;;;;;2369992;56;21062;-46
2022/12/30 02:12:13;;;;;;;16.35;4.10;;;9.30;77.30;;;;;;2369962;56;21634;-47
2022/12/30 02:14:43;;;;;;;20.15;4.90;;;9.30;77.50;;;;;;2369483;56;21633;-48
2022/12/30 02:20:20;;;;;;;14.48;4.55;;;9.30;77.60;;;;;;2304058;57;27965;-50
2022/12/30 02:23:03;;;;;;;9.25;3.10;;;9.00;79.30;;;;;;2342973;57;21616;-48
2022/12/30 02:29:15;;;;;;;17.65;4.05;;;9.20;77.80;;;;;;2350827;57;22114;-46
2022/12/30 02:31:51;;;;;;;14.87;4.37;;;9.30;77.50;;;;;;2341909;57;21564;-45
2022/12/30 02:34:24;;;;;;;19.73;4.40;;;9.30;77.30;;;;;;2367179;56;21019;-49
2022/12/30 02:36:55;;;;;;;;;;;9.20;77.20;;;;;;2375414;56;21003;-48
2022/12/30 02:39:29;;;;;;;16.73;4.45;;;9.30;77.40;;;;;;2372785;56;20065;-50
2022/12/30 02:44:55;;;;;;;15.52;4.20;;;9.20;77.70;;;;;;2623115;52;22156;-51
2022/12/30 02:47:27;;;;;;;14.82;4.07;;;9.20;77.80;;;;;;2369696;56;21102;-47
2022/12/30 02:52:50;;;;;;;16.80;4.47;;;9.10;77.60;;;;;;2324113;56;21109;-48
2022/12/30 02:55:18;;;;;;;14.52;4.60;;;9.10;77.50;;;;;;2369781;56;23009;-51
2022/12/30 02:57:46;;;;;;;16.45;4.68;;;9.10;78.10;;;;;;2369492;56;21097;-49
2022/12/30 03:06:26;;;;;;;17.75;5.07;;;9.10;77.80;;;;;;2369663;56;20995;-49
2022/12/30 03:09:12;;;;;;;19.83;5.18;;;9.10;77.80;;;;;;2372778;56;21567;-47
2022/12/30 03:11:46;;;;;;;10.45;3.92;;;9.10;78.00;;;;;;2373836;56;22151;-48
2022/12/30 03:14:21;;;;;;;13.70;4.45;;;9.00;78.10;;;;;;2373845;56;21558;-48
2022/12/30 03:16:52;;;;;;;14.07;4.35;;;9.10;78.40;;;;;;2372759;56;21058;-46
2022/12/30 03:19:22;;;;;;;13.00;3.62;;;9.10;78.50;;;;;;2372503;56;21586;-45
2022/12/30 03:21:52;;;;;;;17.62;4.75;;;9.10;78.60;;;;;;2374535;56;21019;-46
2022/12/30 03:27:14;;;;;;;19.08;4.82;;;9.20;78.30;;;;;;2628496;52;20943;-47
2022/12/30 03:29:46;;;;;;;20.77;4.85;;;9.20;78.20;;;;;;2374997;56;21027;-45
2022/12/30 03:32:15;;;;;;;19.45;5.40;;;9.30;78.10;;;;;;2375680;56;21105;-44
2022/12/30 03:34:44;;;;;;;18.42;4.55;;;9.30;78.00;;;;;;2372771;56;21209;-47
2022/12/30 03:37:17;;;;;;;18.67;4.95;;;9.30;78.10;;;;;;2372872;56;21565;-45
2022/12/30 03:39:51;;;;;;;15.90;4.60;;;9.20;78.10;;;;;;2372734;56;21514;-46
2022/12/30 03:42:19;;;;;;;26.67;4.10;;;9.30;78.10;;;;;;2372375;56;21035;-46
2022/12/30 03:44:47;;;;;;;17.25;4.30;;;9.30;78.20;;;;;;2372575;56;21039;-47
2022/12/30 03:47:15;;;;;;;16.05;4.43;;;9.30;78.10;;;;;;2372120;56;22266;-45
2022/12/30 03:49:43;;;;;;;9.88;3.92;;;9.30;78.10;;;;;;2372715;56;21475;-46
2022/12/30 03:52:11;;;;;;;13.23;3.65;;;9.30;78.10;;;;;;2372087;56;21064;-52
2022/12/30 03:54:38;;;;;;;18.62;4.05;;;9.30;78.30;;;;;;2373016;56;21555;-45
2022/12/30 03:57:05;;;;;;;21.92;4.78;;;9.30;78.20;;;;;;2372191;56;21043;-49
2022/12/30 03:59:34;;;;;;;18.10;4.43;;;9.30;78.10;;;;;;2371500;56;21043;-46
2022/12/30 04:02:01;;;;;;;17.60;4.12;;;9.30;78.10;;;;;;2372142;56;21047;-46
2022/12/30 04:04:28;;;;;;;17.27;4.35;;;9.40;78.20;;;;;;2372832;56;21169;-48
2022/12/30 04:06:55;;;;;;;29.10;6.75;;;9.40;78.00;;;;;;2372814;56;21035;-46
2022/12/30 04:09:23;;;;;;;20.12;4.62;;;9.40;78.00;;;;;;2371971;56;21068;-47
2022/12/30 04:11:50;;;;;;;19.00;4.53;;;9.40;78.20;;;;;;2372571;56;21507;-46
2022/12/30 04:14:17;;;;;;;16.48;3.67;;;9.40;78.00;;;;;;2372070;56;21131;-48
2022/12/30 04:16:44;;;;;;;16.12;4.32;;;9.40;78.00;;;;;;2371894;56;21122;-45
2022/12/30 04:19:12;;;;;;;15.45;4.60;;;9.50;77.80;;;;;;2372478;56;21047;-46
2022/12/30 04:21:39;;;;;;;25.42;5.78;;;9.40;77.60;;;;;;2372612;56;21051;-48
2022/12/30 04:24:07;;;;;;;16.90;4.28;;;9.50;77.70;;;;;;2372220;56;21107;-47
2022/12/30 04:26:34;;;;;;;13.18;3.72;;;9.50;77.50;;;;;;2371424;56;21193;-46
2022/12/30 04:29:01;;;;;;;18.20;4.15;;;9.50;77.40;;;;;;2372314;56;21043;-46
2022/12/30 04:31:28;;;;;;;16.45;3.97;;;9.50;77.50;;;;;;2371602;56;21130;-45
2022/12/30 04:33:56;;;;;;;20.55;4.37;;;9.50;77.50;;;;;;2371763;56;21035;-50
2022/12/30 04:36:23;;;;;;;13.57;4.05;;;9.60;77.40;;;;;;2371840;56;21043;-49
2022/12/30 04:38:50;;;;;;;19.12;4.43;;;9.60;77.40;;;;;;2372934;56;21035;-45
2022/12/30 04:41:20;;;;;;;15.73;3.97;;;9.60;77.00;;;;;;2371038;56;21590;-46
2022/12/30 04:43:47;;;;;;;14.85;3.92;;;9.60;77.20;;;;;;2371852;56;21947;-46
2022/12/30 04:46:15;;;;;;;14.50;4.32;;;9.60;77.00;;;;;;2372156;56;21711;-49
2022/12/30 04:48:42;;;;;;;19.67;4.03;;;9.60;77.00;;;;;;2371997;56;21542;-51
2022/12/30 04:51:09;;;;;;;15.07;3.65;;;9.60;76.90;;;;;;2372620;56;22128;-47
2022/12/30 04:53:36;;;;;;;17.25;3.83;;;9.60;76.90;;;;;;2371151;56;21187;-44
2022/12/30 04:58:39;;;;;;;19.95;5.05;;;9.60;77.00;;;;;;2354100;57;22062;-47
2022/12/30 05:01:06;;;;;;;17.62;4.25;;;9.70;77.00;;;;;;2346044;57;21037;-47
2022/12/30 05:03:34;;;;;;;19.67;4.28;;;9.70;76.80;;;;;;2360234;56;21126;-48
2022/12/30 05:06:01;;;;;;;17.92;4.97;;;9.70;76.60;;;;;;2372845;56;21578;-47
2022/12/30 05:08:28;;;;;;;18.77;5.10;;;9.70;76.80;;;;;;2373558;56;21305;-48
2022/12/30 05:13:31;;;;;;;12.82;4.28;;;9.70;76.60;;;;;;2339101;57;22170;-47
2022/12/30 05:15:59;;;;;;;13.60;4.25;;;9.70;76.50;;;;;;2345597;57;21069;-49
2022/12/30 05:18:26;;;;;;;21.15;4.55;;;9.70;76.50;;;;;;2345904;57;21613;-47
2022/12/30 05:20:53;;;;;;;16.60;4.55;;;9.70;76.40;;;;;;2345519;57;21112;-46
2022/12/30 05:26:15;;;;;;;15.38;3.70;;;9.70;77.30;;;;;;2344746;57;21069;-46
2022/12/30 05:28:42;;;;;;;16.55;4.20;;;9.70;76.10;;;;;;2345354;57;21049;-48
2022/12/30 05:31:09;;;;;;;16.33;4.30;;;9.70;76.30;;;;;;2346777;57;21138;-45
2022/12/30 05:33:37;;;;;;;19.75;4.30;;;9.70;76.00;;;;;;2346247;57;21033;-45
2022/12/30 05:36:05;;;;;;;17.60;3.92;;;9.70;76.00;;;;;;2346562;57;21510;-45
2022/12/30 05:38:32;;;;;;;14.05;3.45;;;9.70;76.00;;;;;;2345289;57;21069;-48
2022/12/30 05:41:00;;;;;;;15.75;3.47;;;9.70;75.80;;;;;;2344558;57;22205;-46
2022/12/30 05:43:27;;;;;;;12.20;3.40;;;9.70;75.20;;;;;;2345758;57;21057;-48
2022/12/30 05:45:54;;;;;;;11.02;3.78;;;9.70;75.80;;;;;;2345887;57;21120;-49
2022/12/30 05:48:21;;;;;;;15.55;3.95;;;9.70;75.60;;;;;;2346223;57;21132;-45
2022/12/30 05:50:49;;;;;;;13.82;3.65;;;9.70;75.50;;;;;;2346104;57;21129;-45
2022/12/30 05:53:17;;;;;;;16.55;3.50;;;9.80;75.50;;;;;;2347832;57;21076;-45
2022/12/30 05:58:20;;;;;;;12.07;4.40;;;9.70;75.30;;;;;;2353520;57;22053;-47
2022/12/30 06:00:47;;;;;;;15.02;3.72;;;9.70;75.20;;;;;;2346402;57;21136;-49
2022/12/30 06:03:14;;;;;;;14.68;4.85;;;9.70;74.90;;;;;;2357060;56;21051;-47
2022/12/30 06:05:42;;;;;;;15.70;3.85;;;9.60;74.70;;;;;;2373229;56;22038;-47
2022/12/30 06:08:09;;;;;;;13.95;4.62;;;9.60;74.70;;;;;;2373815;56;21086;-45
2022/12/30 06:10:37;;;;;;;12.55;4.40;;;9.60;74.70;;;;;;2373456;56;22168;-49
2022/12/30 06:13:04;;;;;;;17.45;4.57;;;9.60;74.80;;;;;;2373319;56;22221;-47
2022/12/30 06:15:31;;;;;;;17.40;4.57;;;9.60;74.50;;;;;;2373334;56;21539;-47
2022/12/30 06:17:58;;;;;;;17.80;4.90;;;9.50;74.60;;;;;;2373713;56;21113;-51
2022/12/30 06:20:25;;;;;;;17.25;5.20;;;9.50;74.80;;;;;;2374261;56;21119;-47
2022/12/30 06:22:52;;;;;;;16.20;5.95;;;9.50;75.00;;;;;;2374672;56;21047;-53
2022/12/30 06:25:19;;;;;;;20.75;5.68;;;9.50;75.00;;;;;;2372644;56;21634;-54
2022/12/30 06:27:47;;;;;;;15.18;4.65;;;9.50;75.00;;;;;;2373120;56;21554;-47
2022/12/30 06:30:14;;;;;;;20.17;4.62;;;9.40;75.20;;;;;;2373846;56;21058;-47
2022/12/30 06:32:41;;;;;;;13.27;4.50;;;9.40;75.10;;;;;;2373634;56;21177;-48
2022/12/30 06:35:10;;;;;;;10.90;4.45;;;9.40;75.30;;;;;;2373508;56;21047;-49
2022/12/30 06:37:38;;;;;;;19.45;5.57;;;9.40;75.50;;;;;;2373899;56;21050;-46
2022/12/30 06:40:08;;;;;;;24.85;6.37;;;9.40;75.60;;;;;;2373974;56;22042;-52
2022/12/30 06:42:35;;;;;;;15.23;4.65;;;9.40;75.70;;;;;;2375430;56;21764;-51
2022/12/30 06:45:02;;;;;;;18.30;4.82;;;9.40;75.80;;;;;;2374022;56;21110;-48
2022/12/30 06:47:30;;;;;;;18.17;5.03;;;9.40;76.00;;;;;;2375111;56;21081;-45
2022/12/30 06:49:58;;;;;;;16.20;4.70;;;9.40;76.00;;;;;;2629318;52;21069;-50
2022/12/30 06:52:25;;;;;;;19.80;5.57;;;9.40;75.90;;;;;;2375563;56;21035;-48
2022/12/30 06:54:52;;;;;;;16.00;5.15;;;9.40;75.90;;;;;;2375102;56;21082;-50
2022/12/30 06:57:19;;;;;;;19.60;5.10;;;9.40;75.80;;;;;;2373952;56;21625;-49
2022/12/30 06:59:47;;;;;;;17.33;5.90;;;9.40;75.90;;;;;;2373771;56;21095;-46
2022/12/30 07:02:14;;;;;;;21.77;5.62;;;9.40;75.70;;;;;;2372606;56;21047;-47
2022/12/30 07:04:41;;;;;;;15.80;5.37;;;9.40;75.70;;;;;;2373368;56;21062;-49
2022/12/30 07:07:09;;;;;;;12.95;5.15;;;9.40;75.70;;;;;;2373892;56;21728;-47
2022/12/30 07:09:36;;;;;;;17.62;5.47;;;9.40;75.70;;;;;;2373267;56;21059;-49
2022/12/30 07:12:03;;;;;;;15.43;5.05;;;9.40;75.60;;;;;;2373453;56;21137;-46
2022/12/30 07:14:30;;;;;;;15.10;5.05;;;9.40;75.60;;;;;;2372584;56;21567;-48
2022/12/30 07:16:57;;;;;;;13.45;5.30;;;9.40;75.40;;;;;;2372349;56;21067;-52
2022/12/30 07:19:25;;;;;;;15.75;6.18;;;9.30;75.60;;;;;;2445751;55;21065;-47
2022/12/30 07:21:52;;;;;;;17.40;5.07;;;9.30;75.70;;;;;;2245107;60;21078;-50
2022/12/30 07:24:20;;;;;;;15.75;5.53;;;9.30;75.70;;;;;;2244614;60;21859;-49
2022/12/30 07:26:47;;;;;;;19.87;5.90;;;9.20;75.70;;;;;;2245509;60;21073;-48
2022/12/30 07:29:15;;;;;;;15.82;5.45;;;9.20;75.60;;;;;;2264865;59;21642;-50
2022/12/30 07:31:42;;;;;;;23.87;6.35;;;9.20;75.60;;;;;;2270566;59;21119;-49
2022/12/30 07:34:10;;;;;;;17.73;5.20;;;9.20;75.40;;;;;;2270535;59;21603;-51
2022/12/30 07:36:37;;;;;;;19.25;6.03;;;9.10;75.30;;;;;;2270394;59;21067;-50
2022/12/30 07:39:06;;;;;;;20.00;5.62;;;9.10;75.30;;;;;;2270420;59;21642;-49
2022/12/30 07:41:33;;;;;;;24.77;5.25;;;9.10;75.50;;;;;;2271320;59;21055;-51
2022/12/30 07:44:00;;;;;;;15.48;4.78;;;9.00;75.40;;;;;;2501843;55;21535;-51
2022/12/30 07:46:28;;;;;;;12.70;4.87;;;9.00;75.50;;;;;;2270877;59;21138;-49
2022/12/30 07:48:55;;;;;;;21.62;5.47;;;8.90;75.50;;;;;;2270195;59;21452;-48
2022/12/30 07:51:22;;;;;;;14.98;5.55;;;8.90;76.30;;;;;;2270581;59;21125;-49
2022/12/30 07:53:49;;;;;;;12.27;4.12;;;8.90;75.60;;;;;;2271298;59;21602;-47
2022/12/30 07:56:16;;;;;;;16.67;4.72;;;8.90;75.70;;;;;;2271386;59;21063;-48
2022/12/30 07:58:44;;;;;;;14.00;4.90;;;8.80;75.80;;;;;;2270422;59;21067;-53
2022/12/30 08:01:13;;;;;;;15.00;4.87;;;8.80;75.90;;;;;;2270450;59;21063;-50
2022/12/30 08:03:41;;;;;;;21.05;5.00;;;8.70;75.90;;;;;;2270953;59;21626;-48
2022/12/30 08:06:10;;;;;;;10.90;4.68;;;8.70;75.90;;;;;;2270346;59;21059;-49
2022/12/30 08:08:38;;;;;;;19.25;7.62;;;8.70;76.00;;;;;;2270787;59;21623;-51
2022/12/30 08:11:06;;;;;;;22.33;6.05;;;8.70;76.00;;;;;;2270818;59;21590;-52
2022/12/30 08:13:35;;;;;;;14.93;4.97;;;8.70;76.00;;;;;;2500199;55;21630;-51
2022/12/30 08:16:04;;;;;;;13.55;4.97;;;8.70;76.00;;;;;;2499484;55;21491;-50
2022/12/30 08:18:32;;;;;;;16.85;4.60;;;8.60;76.00;;;;;;2270089;59;21028;-48
2022/12/30 08:21:00;;;;;;;13.25;4.18;;;8.60;76.00;;;;;;2270841;59;21506;-48
2022/12/30 08:23:28;;;;;;;19.27;4.75;;;8.50;76.90;;;;;;2501599;55;21038;-50
2022/12/30 08:25:55;;;;;;;13.88;4.40;;;8.50;76.10;;;;;;2270727;59;21035;-47
2022/12/30 08:28:22;;;;;;;14.57;4.20;;;8.50;76.20;;;;;;2270044;59;21527;-49
2022/12/30 08:30:49;;;;;;;18.33;4.90;;;8.50;76.40;;;;;;2270156;59;21071;-48
2022/12/30 08:33:16;;;;;;;11.27;4.10;;;8.50;76.60;;;;;;2269178;59;21359;-50
2022/12/30 08:35:43;;;;;;;11.65;4.22;;;8.40;76.50;;;;;;2269877;59;21055;-49
2022/12/30 08:38:11;;;;;;;13.85;4.62;;;8.40;76.60;;;;;;2268298;59;21067;-52
2022/12/30 08:40:38;;;;;;;12.90;4.70;;;8.40;76.70;;;;;;2268987;59;21620;-50
2022/12/30 08:43:05;;;;;;;15.18;4.97;;;8.40;76.90;;;;;;2269775;59;21067;-49
2022/12/30 08:45:32;;;;;;;15.60;4.62;;;8.30;77.00;;;;;;2269878;59;21555;-52
2022/12/30 08:47:59;;;;;;;24.33;5.10;;;8.30;77.00;;;;;;2269878;59;21094;-48
2022/12/30 08:50:26;;;;;;;13.75;4.82;;;8.30;77.20;;;;;;2269205;59;21079;-49
2022/12/30 08:52:54;;;;;;;13.57;3.95;;;8.30;77.30;;;;;;2270678;59;21118;-48
2022/12/30 08:55:21;;;;;;;15.63;3.85;;;8.30;77.60;;;;;;2270510;59;21063;-48
2022/12/30 08:57:48;;;;;;;19.23;4.20;;;8.30;77.70;;;;;;2269600;59;21550;-51
2022/12/30 09:00:17;;;;;;;17.85;4.78;;;8.30;77.80;;;;;;2269976;59;21071;-51
2022/12/30 09:02:44;;;;;;;23.62;4.37;;;8.30;77.90;;;;;;2269513;59;21530;-49
2022/12/30 09:05:11;;;;;;;12.10;4.37;;;8.30;78.10;;;;;;2269186;59;21642;-50
2022/12/30 09:07:39;;;;;;;12.00;4.20;;;8.40;78.30;;;;;;2269835;59;21074;-50
2022/12/30 09:10:10;;;;;;;14.20;4.80;;;8.40;78.40;;;;;;2270147;59;21071;-51
2022/12/30 09:12:37;;;;;;;15.77;4.32;;;8.40;78.60;;;;;;2271232;59;21097;-49
2022/12/30 09:15:07;;;;;;;20.62;5.97;;;8.40;78.60;;;;;;2271375;59;21635;-48
2022/12/30 09:17:34;;;;;;;17.30;5.00;;;8.40;78.70;;;;;;2270596;59;21079;-49
2022/12/30 09:20:01;;;;;;;21.98;5.50;;;8.50;78.70;;;;;;2268479;59;21122;-51
2022/12/30 09:22:29;;;;;;;11.50;5.47;;;8.50;78.30;;;;;;2269062;59;21519;-49
2022/12/30 09:24:56;;;;;;;14.10;4.15;;;8.50;78.50;;;;;;2268017;59;21063;-49
2022/12/30 09:27:25;;;;;;;16.30;4.50;;;8.50;78.50;;;;;;2269349;59;21071;-50
2022/12/30 09:29:53;;;;;;;15.05;4.80;;;8.60;78.70;;;;;;2269244;59;21051;-51
2022/12/30 09:32:21;;;;;;;19.77;4.80;;;8.60;78.60;;;;;;2270039;59;21230;-49
2022/12/30 09:34:48;;;;;;;15.65;4.65;;;8.60;78.50;;;;;;2268971;59;21055;-52
2022/12/30 09:37:15;;;;;;;16.40;4.75;;;8.60;78.50;;;;;;2270150;59;21107;-48
2022/12/30 09:39:42;;;;;;;12.88;3.75;;;8.70;78.10;;;;;;2270155;59;21626;-50
2022/12/30 09:45:15;;;;;;;17.58;5.20;;;8.60;78.00;;;;;;2270436;59;20983;-51
2022/12/30 09:47:48;;;;;;;11.38;4.47;;;8.60;78.00;;;;;;2270748;59;21063;-52
2022/12/30 09:50:27;;;;;;;11.50;4.10;;;8.60;78.10;;;;;;2270931;59;21055;-48
2022/12/30 09:52:59;;;;;;;13.62;3.58;;;8.60;78.20;;;;;;2270366;59;21538;-52
2022/12/30 09:55:29;;;;;;;12.50;3.78;;;8.60;78.20;;;;;;2270631;59;21613;-53
2022/12/30 09:58:02;;;;;;;16.67;4.80;;;8.60;78.30;;;;;;2270618;59;21611;-47
2022/12/30 10:00:33;;;;;;;9.50;3.58;;;8.60;78.30;;;;;;2271946;59;21773;-48
2022/12/30 10:03:05;;;;;;;11.20;3.60;;;8.60;78.30;;;;;;2272103;59;21095;-52
2022/12/30 10:05:50;;;;;;;15.88;4.22;;;8.70;78.40;;;;;;2271360;59;21687;-50
2022/12/30 10:08:29;;;;;;;12.43;3.72;;;8.70;78.30;;;;;;2271866;59;21042;-50
2022/12/30 10:11:07;;;;;;;16.08;4.85;;;8.70;78.30;;;;;;2270855;59;21489;-48
2022/12/30 10:13:44;;;;;;;12.32;3.70;;;8.70;78.20;;;;;;2270856;59;21119;-52
2022/12/30 10:16:16;;;;;;;17.67;3.90;;;8.70;78.30;;;;;;2270397;59;21530;-52
2022/12/30 10:19:04;;;;;;;14.38;4.30;;;8.70;78.30;;;;;;2270518;59;21054;-49
2022/12/30 10:21:41;;;;;;;11.77;3.78;;;8.80;78.40;;;;;;2270300;59;21558;-53
2022/12/30 10:24:21;;;;;;;10.05;3.42;;;8.80;78.20;;;;;;2270123;59;21602;-49
2022/12/30 10:26:49;;;;;;;11.18;3.60;;;8.90;78.20;;;;;;2271035;59;21095;-51
2022/12/30 10:29:19;;;;;;;25.05;4.75;;;8.90;78.30;;;;;;2269194;59;21650;-50
2022/12/30 10:31:47;;;;;;;16.95;3.58;;;8.90;78.20;;;;;;2270222;59;21067;-50
2022/12/30 10:34:16;;;;;;;14.02;3.83;;;9.00;78.10;;;;;;2268524;59;21127;-52
2022/12/30 10:36:50;;;;;;;10.65;2.87;;;9.00;77.90;;;;;;2270760;59;21602;-49
2022/12/30 10:42:09;;;;;;;16.62;4.68;;;9.00;77.80;;;;;;2335738;57;27775;-50
2022/12/30 10:44:41;;;;;;;;;;;8.90;78.90;;;;;;2350455;57;21636;-48
2022/12/30 10:47:23;;;;;;;20.30;3.78;;;9.10;78.70;;;;;;2348296;57;20039;-50
2022/12/30 10:50:02;;;;;;;12.95;3.28;;;9.20;77.80;;;;;;2321336;58;21020;-47
2022/12/30 10:52:29;;;;;;;16.10;3.58;;;9.20;77.20;;;;;;2321514;58;21036;-49
2022/12/30 10:54:57;;;;;;;12.95;3.10;;;9.20;77.10;;;;;;2320548;58;21112;-50
2022/12/30 10:57:30;;;;;;;17.20;3.47;;;9.20;77.00;;;;;;2319913;58;21044;-47
2022/12/30 10:59:58;;;;;;;10.43;2.70;;;9.20;76.70;;;;;;2321211;58;21044;-48
2022/12/30 11:02:32;;;;;;;11.60;3.47;;;9.20;76.90;;;;;;2319957;58;21068;-49
2022/12/30 11:04:59;;;;;;;;;;;9.20;77.00;;;;;;2323527;58;21064;-48
2022/12/30 11:07:26;;;;;;;11.43;3.55;;;9.30;77.70;;;;;;2319330;58;20079;-47
2022/12/30 11:15:21;;;;;;;13.30;3.42;;;9.20;78.10;;;;;;2291439;58;21177;-46
2022/12/30 11:17:51;;;;;;;9.27;2.70;;;9.40;77.90;;;;;;2295757;58;21885;-50
2022/12/30 11:20:30;;;;;;;9.85;2.83;;;9.40;77.20;;;;;;2316758;58;21072;-51
2022/12/30 11:22:59;;;;;;;12.93;2.83;;;9.40;76.90;;;;;;2315417;58;21076;-47
2022/12/30 11:25:29;;;;;;;14.75;2.90;;;9.50;76.60;;;;;;2314646;58;21658;-50
2022/12/30 11:27:59;;;;;;;11.10;3.08;;;9.50;76.30;;;;;;2315482;58;21059;-47
2022/12/30 11:33:14;;;;;;;11.12;2.95;;;9.50;76.10;;;;;;2326338;57;22059;-49
2022/12/30 11:35:45;;;;;;;7.62;2.62;;;9.50;76.10;;;;;;2344518;57;21049;-50
2022/12/30 11:38:30;;;;;;;11.63;2.75;;;9.50;76.00;;;;;;2607749;52;21049;-52
2022/12/30 11:41:12;;;;;;;12.37;3.03;;;9.50;76.10;;;;;;2384787;56;21005;-49
2022/12/30 11:43:40;;;;;;;11.32;2.90;;;9.50;75.50;;;;;;2383476;56;21037;-48
2022/12/30 11:46:11;;;;;;;9.07;2.55;;;9.50;75.60;;;;;;2384540;56;21033;-47
2022/12/30 11:48:44;;;;;;;12.45;3.03;;;9.50;75.60;;;;;;2384587;56;21628;-48
2022/12/30 11:51:17;;;;;;;8.50;2.40;;;9.50;75.70;;;;;;2383412;56;21109;-49
2022/12/30 11:53:45;;;;;;;13.88;3.00;;;9.60;75.80;;;;;;2383932;56;22112;-47
2022/12/30 11:56:12;;;;;;;13.60;2.58;;;9.60;75.30;;;;;;2383725;56;21117;-52
2022/12/30 11:58:42;;;;;;;12.18;2.50;;;9.60;75.30;;;;;;2384124;56;21572;-52
2022/12/30 12:01:11;;;;;;;15.02;3.30;;;9.60;75.20;;;;;;2384005;56;21057;-50
2022/12/30 12:03:48;;;;;;;7.25;2.67;;;9.60;75.20;;;;;;2383151;56;21537;-49
2022/12/30 12:06:16;;;;;;;13.82;3.70;;;9.60;74.90;;;;;;2383862;56;21092;-49
2022/12/30 12:11:30;;;;;;;12.98;2.10;;;9.60;74.90;;;;;;2327959;57;22139;-49
2022/12/30 12:14:06;;;;;;;12.63;2.80;;;9.60;74.50;;;;;;2346266;57;21045;-49
2022/12/30 12:16:42;;;;;;;9.18;2.25;;;9.70;74.50;;;;;;2346321;57;21104;-48
2022/12/30 12:21:50;;;;;;;8.18;2.00;;;9.60;74.40;;;;;;2352568;57;22648;-50
2022/12/30 12:24:23;;;;;;;13.77;2.67;;;9.60;74.20;;;;;;2344546;57;22139;-51
2022/12/30 12:26:56;;;;;;;9.98;2.03;;;9.70;73.70;;;;;;2346556;57;21017;-49
2022/12/30 12:29:24;;;;;;;13.68;2.70;;;9.70;73.80;;;;;;2370272;56;21034;-48
2022/12/30 12:32:10;;;;;;;9.48;2.40;;;9.70;73.80;;;;;;2374339;56;21103;-47
2022/12/30 12:34:47;;;;;;;11.00;2.47;;;9.70;73.90;;;;;;2375230;56;21031;-50
2022/12/30 12:37:30;;;;;;;10.43;3.33;;;9.70;73.90;;;;;;2374622;56;21043;-46
2022/12/30 12:40:17;;;;;;;7.20;2.10;;;9.70;73.80;;;;;;2373695;56;21637;-49
2022/12/30 12:42:55;;;;;;;14.63;2.30;;;9.70;73.60;;;;;;2371795;56;21546;-47
2022/12/30 12:48:51;;;;;;;10.85;2.37;;;9.70;73.80;;;;;;2342632;57;22183;-48
2022/12/30 12:51:34;;;;;;;12.68;2.05;;;9.80;73.50;;;;;;2347063;57;21541;-47
2022/12/30 12:54:24;;;;;;;8.88;2.17;;;9.80;73.40;;;;;;2347774;57;21623;-47
2022/12/30 12:57:01;;;;;;;12.35;2.15;;;9.80;73.50;;;;;;2347645;57;21049;-49
2022/12/30 12:59:47;;;;;;;11.02;2.55;;;9.80;73.60;;;;;;2346800;57;21104;-49
2022/12/30 13:02:43;;;;;;;8.15;2.08;;;9.80;73.40;;;;;;2346846;57;21050;-52
2022/12/30 13:05:18;;;;;;;8.95;2.67;;;9.80;73.20;;;;;;2347078;57;21649;-48
2022/12/30 13:07:56;;;;;;;5.45;2.08;;;9.90;73.30;;;;;;2347015;57;21096;-51
2022/12/30 13:10:32;;;;;;;6.90;2.22;;;9.90;73.10;;;;;;2346802;57;21097;-49
2022/12/30 13:13:05;;;;;;;13.50;2.15;;;9.90;73.10;;;;;;2347079;57;21029;-47
2022/12/30 13:15:37;;;;;;;6.78;2.08;;;9.90;73.10;;;;;;2347224;57;21084;-48
2022/12/30 13:18:10;;;;;;;8.57;2.60;;;10.00;73.10;;;;;;2347237;57;21022;-50
2022/12/30 13:20:44;;;;;;;;;;;10.00;72.80;;;;;;2351371;57;21029;-47
2022/12/30 13:23:13;;;;;;;9.55;2.28;;;10.10;72.90;;;;;;2348119;57;20042;-48
2022/12/30 13:25:43;;;;;;;7.43;2.37;;;10.00;72.20;;;;;;2347513;57;21081;-47
2022/12/30 13:28:20;;;;;;;6.82;1.65;;;10.00;72.00;;;;;;2343873;57;21183;-49
2022/12/30 13:31:05;;;;;;;5.37;1.62;;;10.00;72.30;;;;;;2346085;57;21113;-50
2022/12/30 13:33:46;;;;;;;8.15;1.80;;;10.00;72.40;;;;;;2346388;57;21558;-49
2022/12/30 13:36:37;;;;;;;6.80;1.85;;;10.00;72.30;;;;;;2345462;57;21525;-48
2022/12/30 13:39:24;;;;;;;8.20;1.70;;;10.00;72.30;;;;;;2241673;60;22107;-48
2022/12/30 13:42:12;;;;;;;7.05;1.90;;;10.00;72.10;;;;;;2242787;60;21578;-48
2022/12/30 13:44:43;;;;;;;8.07;1.83;;;10.00;72.10;;;;;;2243308;60;21690;-47
2022/12/30 13:47:30;;;;;;;5.62;2.15;;;9.90;71.90;;;;;;2253226;59;21815;-50
2022/12/30 13:49:58;;;;;;;7.18;2.08;;;9.90;71.90;;;;;;2268163;59;21560;-48
2022/12/30 13:52:28;;;;;;;13.05;2.55;;;10.00;71.80;;;;;;2267648;59;21568;-51
2022/12/30 13:54:58;;;;;;;5.10;1.70;;;9.90;71.70;;;;;;2266903;59;21572;-47
2022/12/30 13:57:31;;;;;;;5.47;1.58;;;9.90;71.80;;;;;;2497570;55;21191;-51
2022/12/30 14:00:23;;;;;;;8.98;1.95;;;9.90;71.70;;;;;;2267008;59;21639;-51
2022/12/30 14:02:59;;;;;;;4.90;1.80;;;9.80;71.70;;;;;;2266455;59;21120;-46
2022/12/30 14:05:54;;;;;;;7.50;1.90;;;9.80;71.80;;;;;;2268261;59;21608;-48
2022/12/30 14:08:47;;;;;;;6.75;1.70;;;9.80;71.90;;;;;;2268363;59;21114;-46
2022/12/30 14:11:16;;;;;;;5.87;1.80;;;9.80;72.10;;;;;;2267812;59;21592;-46
2022/12/30 14:13:58;;;;;;;9.95;2.28;;;9.80;71.90;;;;;;2268453;59;21045;-46
2022/12/30 14:16:45;;;;;;;8.07;2.28;;;9.80;72.10;;;;;;2268013;59;21049;-48
2022/12/30 14:19:18;;;;;;;8.18;2.08;;;9.70;72.10;;;;;;2267173;59;21084;-48
2022/12/30 14:21:47;;;;;;;;;;;9.70;72.10;;;;;;2270368;59;21699;-47
2022/12/30 14:24:47;;;;;;;9.40;2.50;;;9.80;72.30;;;;;;2267069;59;20136;-47
2022/12/30 14:27:41;;;;;;;4.97;1.58;;;9.70;72.00;;;;;;2265928;59;22195;-46
2022/12/30 14:32:59;;;;;;;6.25;1.52;;;9.70;72.30;;;;;;2355156;57;22085;-47
2022/12/30 14:35:27;;;;;;;12.13;2.80;;;9.60;72.40;;;;;;2347092;57;21066;-49
2022/12/30 14:38:14;;;;;;;7.40;1.80;;;9.70;72.50;;;;;;2365207;56;21609;-48
2022/12/30 14:40:41;;;;;;;3.78;1.60;;;9.70;72.50;;;;;;2373290;56;21095;-49